sensor_id;sensor_type;location;lat;lon;timestamp;P1;durP1;ratioP1;P2;durP2;ratioP2
24635;SDS011;12772;49.794;10.024;2023-04-24T00:00:19;2.38;;;1.13;;
24635;SDS011;12772;49.794;10.024;2023-04-24T00:04:21;1.10;;;1.05;;
24635;SDS011;12772;49.794;10.024;2023-04-24T00:08:26;1.60;;;1.10;;
24635;SDS011;12772;49.794;10.024;2023-04-24T00:12:28;1.05;;;1.05;;
24635;SDS011;12772;49.794;10.024;2023-04-24T00:16:32;1.80;;;1.20;;
24635;SDS011;12772;49.794;10.024;2023-04-24T00:20:34;2.33;;;1.42;;
24635;SDS011;12772;49.794;10.024;2023-04-24T00:24:37;1.00;;;1.00;;
24635;SDS011;12772;49.794;10.024;2023-04-24T00:28:39;1.10;;;1.00;;
24635;SDS011;12772;49.794;10.024;2023-04-24T00:32:41;1.58;;;1.15;;
24635;SDS011;12772;49.794;10.024;2023-04-24T00:36:43;2.25;;;1.02;;
24635;SDS011;12772;49.794;10.024;2023-04-24T00:40:46;0.90;;;0.90;;
24635;SDS011;12772;49.794;10.024;2023-04-24T00:44:48;1.48;;;0.90;;
24635;SDS011;12772;49.794;10.024;2023-04-24T00:48:51;1.25;;;1.10;;
24635;SDS011;12772;49.794;10.024;2023-04-24T00:52:53;1.50;;;0.90;;
24635;SDS011;12772;49.794;10.024;2023-04-24T00:56:55;0.90;;;0.85;;
24635;SDS011;12772;49.794;10.024;2023-04-24T01:00:57;2.67;;;1.10;;
24635;SDS011;12772;49.794;10.024;2023-04-24T01:05:02;2.60;;;1.00;;
24635;SDS011;12772;49.794;10.024;2023-04-24T01:09:05;0.90;;;0.90;;
24635;SDS011;12772;49.794;10.024;2023-04-24T01:13:09;1.95;;;0.98;;
24635;SDS011;12772;49.794;10.024;2023-04-24T01:17:11;1.23;;;0.90;;
24635;SDS011;12772;49.794;10.024;2023-04-24T01:21:14;1.67;;;1.10;;
24635;SDS011;12772;49.794;10.024;2023-04-24T01:25:18;1.05;;;1.05;;
24635;SDS011;12772;49.794;10.024;2023-04-24T01:29:20;0.80;;;0.80;;
24635;SDS011;12772;49.794;10.024;2023-04-24T01:33:22;1.90;;;1.13;;
24635;SDS011;12772;49.794;10.024;2023-04-24T01:37:25;1.27;;;1.10;;
24635;SDS011;12772;49.794;10.024;2023-04-24T01:41:29;1.73;;;1.10;;
24635;SDS011;12772;49.794;10.024;2023-04-24T01:45:31;0.80;;;0.80;;
24635;SDS011;12772;49.794;10.024;2023-04-24T01:49:34;0.95;;;0.95;;
24635;SDS011;12772;49.794;10.024;2023-04-24T01:53:36;1.08;;;1.00;;
24635;SDS011;12772;49.794;10.024;2023-04-24T01:57:38;1.35;;;0.93;;
24635;SDS011;12772;49.794;10.024;2023-04-24T02:01:41;0.93;;;0.90;;
24635;SDS011;12772;49.794;10.024;2023-04-24T02:05:43;1.10;;;1.10;;
24635;SDS011;12772;49.794;10.024;2023-04-24T02:09:46;2.15;;;1.30;;
24635;SDS011;12772;49.794;10.024;2023-04-24T02:13:48;1.10;;;1.00;;
24635;SDS011;12772;49.794;10.024;2023-04-24T02:17:50;0.85;;;0.85;;
24635;SDS011;12772;49.794;10.024;2023-04-24T02:21:53;2.22;;;1.13;;
24635;SDS011;12772;49.794;10.024;2023-04-24T02:25:55;1.08;;;0.80;;
24635;SDS011;12772;49.794;10.024;2023-04-24T02:29:57;1.70;;;1.02;;
24635;SDS011;12772;49.794;10.024;2023-04-24T02:33:59;1.23;;;1.13;;
24635;SDS011;12772;49.794;10.024;2023-04-24T02:38:04;1.75;;;0.80;;
24635;SDS011;12772;49.794;10.024;2023-04-24T02:42:06;1.13;;;1.05;;
24635;SDS011;12772;49.794;10.024;2023-04-24T02:46:08;1.23;;;1.13;;
24635;SDS011;12772;49.794;10.024;2023-04-24T02:50:10;1.08;;;1.00;;
24635;SDS011;12772;49.794;10.024;2023-04-24T02:54:12;1.00;;;1.00;;
24635;SDS011;12772;49.794;10.024;2023-04-24T02:58:14;1.08;;;1.00;;
24635;SDS011;12772;49.794;10.024;2023-04-24T03:02:17;0.90;;;0.85;;
24635;SDS011;12772;49.794;10.024;2023-04-24T03:06:20;1.25;;;1.00;;
24635;SDS011;12772;49.794;10.024;2023-04-24T03:10:23;1.30;;;1.20;;
24635;SDS011;12772;49.794;10.024;2023-04-24T03:14:25;1.52;;;0.90;;
24635;SDS011;12772;49.794;10.024;2023-04-24T03:18:27;1.95;;;1.02;;
24635;SDS011;12772;49.794;10.024;2023-04-24T03:22:29;1.23;;;1.10;;
24635;SDS011;12772;49.794;10.024;2023-04-24T03:26:32;1.60;;;1.00;;
24635;SDS011;12772;49.794;10.024;2023-04-24T03:30:35;1.52;;;1.05;;
24635;SDS011;12772;49.794;10.024;2023-04-24T03:34:37;2.08;;;0.93;;
24635;SDS011;12772;49.794;10.024;2023-04-24T03:38:39;1.20;;;1.00;;
24635;SDS011;12772;49.794;10.024;2023-04-24T03:42:41;1.50;;;1.10;;
24635;SDS011;12772;49.794;10.024;2023-04-24T03:46:43;3.80;;;1.25;;
24635;SDS011;12772;49.794;10.024;2023-04-24T03:50:45;1.92;;;1.23;;
24635;SDS011;12772;49.794;10.024;2023-04-24T03:54:48;0.80;;;0.80;;
24635;SDS011;12772;49.794;10.024;2023-04-24T03:58:50;0.80;;;0.80;;
24635;SDS011;12772;49.794;10.024;2023-04-24T04:02:52;1.10;;;0.98;;
24635;SDS011;12772;49.794;10.024;2023-04-24T04:06:54;3.10;;;1.00;;
24635;SDS011;12772;49.794;10.024;2023-04-24T04:10:56;2.40;;;0.88;;
24635;SDS011;12772;49.794;10.024;2023-04-24T04:14:58;1.85;;;1.02;;
24635;SDS011;12772;49.794;10.024;2023-04-24T04:19:01;1.60;;;0.90;;
24635;SDS011;12772;49.794;10.024;2023-04-24T04:23:04;1.15;;;1.10;;
24635;SDS011;12772;49.794;10.024;2023-04-24T04:27:06;1.00;;;0.90;;
24635;SDS011;12772;49.794;10.024;2023-04-24T04:31:09;2.78;;;1.20;;
24635;SDS011;12772;49.794;10.024;2023-04-24T04:35:12;1.02;;;0.93;;
24635;SDS011;12772;49.794;10.024;2023-04-24T04:39:14;1.33;;;1.17;;
24635;SDS011;12772;49.794;10.024;2023-04-24T04:43:17;1.38;;;1.15;;
24635;SDS011;12772;49.794;10.024;2023-04-24T04:47:20;2.00;;;1.13;;
24635;SDS011;12772;49.794;10.024;2023-04-24T04:51:23;1.23;;;1.10;;
24635;SDS011;12772;49.794;10.024;2023-04-24T04:55:26;1.27;;;1.00;;
24635;SDS011;12772;49.794;10.024;2023-04-24T04:59:28;1.40;;;1.27;;
24635;SDS011;12772;49.794;10.024;2023-04-24T05:03:30;2.10;;;1.30;;
24635;SDS011;12772;49.794;10.024;2023-04-24T05:07:32;3.65;;;1.20;;
24635;SDS011;12772;49.794;10.024;2023-04-24T05:11:34;2.97;;;1.15;;
24635;SDS011;12772;49.794;10.024;2023-04-24T05:15:36;1.83;;;1.20;;
24635;SDS011;12772;49.794;10.024;2023-04-24T05:19:38;2.75;;;1.08;;
24635;SDS011;12772;49.794;10.024;2023-04-24T05:23:41;1.70;;;1.40;;
24635;SDS011;12772;49.794;10.024;2023-04-24T05:27:43;2.00;;;1.30;;
24635;SDS011;12772;49.794;10.024;2023-04-24T05:31:46;1.10;;;1.10;;
24635;SDS011;12772;49.794;10.024;2023-04-24T05:35:48;2.65;;;1.13;;
24635;SDS011;12772;49.794;10.024;2023-04-24T05:39:50;1.95;;;1.25;;
24635;SDS011;12772;49.794;10.024;2023-04-24T05:43:52;1.40;;;1.27;;
24635;SDS011;12772;49.794;10.024;2023-04-24T05:47:54;1.40;;;1.15;;
24635;SDS011;12772;49.794;10.024;2023-04-24T05:51:57;1.20;;;1.10;;
24635;SDS011;12772;49.794;10.024;2023-04-24T05:55:59;1.40;;;1.30;;
24635;SDS011;12772;49.794;10.024;2023-04-24T06:00:01;1.77;;;1.67;;
24635;SDS011;12772;49.794;10.024;2023-04-24T06:04:04;1.70;;;1.50;;
24635;SDS011;12772;49.794;10.024;2023-04-24T06:08:07;3.08;;;1.20;;
24635;SDS011;12772;49.794;10.024;2023-04-24T06:12:09;2.15;;;1.08;;
24635;SDS011;12772;49.794;10.024;2023-04-24T06:16:11;2.72;;;1.35;;
24635;SDS011;12772;49.794;10.024;2023-04-24T06:20:13;1.38;;;1.20;;
24635;SDS011;12772;49.794;10.024;2023-04-24T06:24:15;1.35;;;1.25;;
24635;SDS011;12772;49.794;10.024;2023-04-24T06:28:18;1.23;;;1.17;;
24635;SDS011;12772;49.794;10.024;2023-04-24T06:32:21;1.55;;;1.45;;
24635;SDS011;12772;49.794;10.024;2023-04-24T06:36:24;1.48;;;1.40;;
24635;SDS011;12772;49.794;10.024;2023-04-24T06:40:26;3.15;;;1.30;;
24635;SDS011;12772;49.794;10.024;2023-04-24T06:44:28;1.10;;;1.10;;
24635;SDS011;12772;49.794;10.024;2023-04-24T06:48:30;2.05;;;1.20;;
24635;SDS011;12772;49.794;10.024;2023-04-24T06:52:33;1.25;;;1.20;;
24635;SDS011;12772;49.794;10.024;2023-04-24T06:56:35;1.67;;;1.42;;
24635;SDS011;12772;49.794;10.024;2023-04-24T07:00:38;1.52;;;1.42;;
24635;SDS011;12772;49.794;10.024;2023-04-24T07:04:40;1.80;;;1.45;;
24635;SDS011;12772;49.794;10.024;2023-04-24T07:08:42;1.45;;;1.35;;
24635;SDS011;12772;49.794;10.024;2023-04-24T07:12:44;1.48;;;1.48;;
24635;SDS011;12772;49.794;10.024;2023-04-24T07:16:46;1.60;;;1.50;;
24635;SDS011;12772;49.794;10.024;2023-04-24T07:20:49;1.60;;;1.50;;
24635;SDS011;12772;49.794;10.024;2023-04-24T07:24:51;1.85;;;1.70;;
24635;SDS011;12772;49.794;10.024;2023-04-24T07:28:53;1.75;;;1.50;;
24635;SDS011;12772;49.794;10.024;2023-04-24T07:32:55;1.83;;;1.58;;
24635;SDS011;12772;49.794;10.024;2023-04-24T07:36:57;1.50;;;1.30;;
24635;SDS011;12772;49.794;10.024;2023-04-24T07:40:59;3.70;;;1.85;;
24635;SDS011;12772;49.794;10.024;2023-04-24T07:45:01;3.08;;;1.60;;
24635;SDS011;12772;49.794;10.024;2023-04-24T07:49:04;4.13;;;1.88;;
24635;SDS011;12772;49.794;10.024;2023-04-24T07:53:06;2.35;;;1.80;;
24635;SDS011;12772;49.794;10.024;2023-04-24T07:57:08;1.73;;;1.63;;
24635;SDS011;12772;49.794;10.024;2023-04-24T08:01:10;3.15;;;1.83;;
24635;SDS011;12772;49.794;10.024;2023-04-24T08:05:12;3.88;;;2.10;;
24635;SDS011;12772;49.794;10.024;2023-04-24T08:09:15;1.77;;;1.67;;
24635;SDS011;12772;49.794;10.024;2023-04-24T08:13:17;2.33;;;1.92;;
24635;SDS011;12772;49.794;10.024;2023-04-24T08:17:19;1.92;;;1.83;;
24635;SDS011;12772;49.794;10.024;2023-04-24T08:21:21;2.08;;;1.98;;
24635;SDS011;12772;49.794;10.024;2023-04-24T08:25:23;4.68;;;2.08;;
24635;SDS011;12772;49.794;10.024;2023-04-24T08:29:25;2.00;;;1.90;;
24635;SDS011;12772;49.794;10.024;2023-04-24T08:33:28;2.05;;;1.95;;
24635;SDS011;12772;49.794;10.024;2023-04-24T08:37:34;2.25;;;2.00;;
24635;SDS011;12772;49.794;10.024;2023-04-24T08:41:36;2.15;;;1.85;;
24635;SDS011;12772;49.794;10.024;2023-04-24T08:45:39;2.53;;;1.95;;
24635;SDS011;12772;49.794;10.024;2023-04-24T08:49:41;2.15;;;2.05;;
24635;SDS011;12772;49.794;10.024;2023-04-24T08:53:46;1.67;;;1.58;;
24635;SDS011;12772;49.794;10.024;2023-04-24T08:57:50;2.50;;;1.85;;
24635;SDS011;12772;49.794;10.024;2023-04-24T09:01:54;2.30;;;2.10;;
24635;SDS011;12772;49.794;10.024;2023-04-24T09:05:57;1.70;;;1.60;;
24635;SDS011;12772;49.794;10.024;2023-04-24T09:10:01;1.60;;;1.50;;
24635;SDS011;12772;49.794;10.024;2023-04-24T09:14:03;1.58;;;1.40;;
24635;SDS011;12772;49.794;10.024;2023-04-24T09:18:06;1.10;;;1.05;;
24635;SDS011;12772;49.794;10.024;2023-04-24T09:22:08;1.20;;;1.10;;
24635;SDS011;12772;49.794;10.024;2023-04-24T09:26:11;1.30;;;1.25;;
24635;SDS011;12772;49.794;10.024;2023-04-24T09:30:14;1.00;;;1.00;;
24635;SDS011;12772;49.794;10.024;2023-04-24T09:34:23;1.25;;;1.13;;
24635;SDS011;12772;49.794;10.024;2023-04-24T09:38:30;1.60;;;1.40;;
24635;SDS011;12772;49.794;10.024;2023-04-24T09:42:33;1.27;;;1.10;;
24635;SDS011;12772;49.794;10.024;2023-04-24T09:46:35;1.25;;;1.20;;
24635;SDS011;12772;49.794;10.024;2023-04-24T09:50:38;1.08;;;1.08;;
24635;SDS011;12772;49.794;10.024;2023-04-24T09:54:40;1.75;;;1.30;;
24635;SDS011;12772;49.794;10.024;2023-04-24T09:58:53;1.60;;;1.52;;
24635;SDS011;12772;49.794;10.024;2023-04-24T10:02:56;1.85;;;1.33;;
24635;SDS011;12772;49.794;10.024;2023-04-24T10:07:03;4.20;;;1.42;;
24635;SDS011;12772;49.794;10.024;2023-04-24T10:11:07;2.35;;;1.50;;
24635;SDS011;12772;49.794;10.024;2023-04-24T10:15:11;1.27;;;1.27;;
24635;SDS011;12772;49.794;10.024;2023-04-24T10:19:14;4.32;;;1.42;;
24635;SDS011;12772;49.794;10.024;2023-04-24T10:23:16;1.45;;;1.35;;
24635;SDS011;12772;49.794;10.024;2023-04-24T10:27:20;2.13;;;1.60;;
24635;SDS011;12772;49.794;10.024;2023-04-24T10:31:23;1.67;;;1.58;;
24635;SDS011;12772;49.794;10.024;2023-04-24T10:35:26;3.50;;;1.52;;
24635;SDS011;12772;49.794;10.024;2023-04-24T10:39:32;1.60;;;1.50;;
24635;SDS011;12772;49.794;10.024;2023-04-24T10:43:35;1.52;;;1.42;;
24635;SDS011;12772;49.794;10.024;2023-04-24T10:47:40;2.97;;;1.60;;
24635;SDS011;12772;49.794;10.024;2023-04-24T10:51:49;1.60;;;1.50;;
24635;SDS011;12772;49.794;10.024;2023-04-24T11:04:32;1.73;;;1.48;;
24635;SDS011;12772;49.794;10.024;2023-04-24T11:08:39;1.60;;;1.50;;
24635;SDS011;12772;49.794;10.024;2023-04-24T11:12:45;1.45;;;1.35;;
24635;SDS011;12772;49.794;10.024;2023-04-24T11:16:51;2.53;;;1.70;;
24635;SDS011;12772;49.794;10.024;2023-04-24T11:20:55;1.83;;;1.70;;
24635;SDS011;12772;49.794;10.024;2023-04-24T11:24:57;2.25;;;2.05;;
24635;SDS011;12772;49.794;10.024;2023-04-24T11:29:06;2.65;;;2.00;;
24635;SDS011;12772;49.794;10.024;2023-04-24T11:33:09;2.17;;;1.98;;
24635;SDS011;12772;49.794;10.024;2023-04-24T11:37:11;5.90;;;1.63;;
24635;SDS011;12772;49.794;10.024;2023-04-24T11:41:13;1.80;;;1.70;;
24635;SDS011;12772;49.794;10.024;2023-04-24T11:45:21;3.05;;;1.73;;
24635;SDS011;12772;49.794;10.024;2023-04-24T11:49:25;3.50;;;2.75;;
24635;SDS011;12772;49.794;10.024;2023-04-24T11:53:27;1.55;;;1.45;;
24635;SDS011;12772;49.794;10.024;2023-04-24T11:57:29;3.47;;;1.52;;
24635;SDS011;12772;49.794;10.024;2023-04-24T12:01:42;1.67;;;1.58;;
24635;SDS011;12772;49.794;10.024;2023-04-24T12:05:46;1.38;;;1.27;;
24635;SDS011;12772;49.794;10.024;2023-04-24T12:09:58;1.38;;;1.27;;
24635;SDS011;12772;49.794;10.024;2023-04-24T12:14:11;1.85;;;1.75;;
24635;SDS011;12772;49.794;10.024;2023-04-24T12:18:13;1.30;;;1.20;;
24635;SDS011;12772;49.794;10.024;2023-04-24T12:22:17;1.60;;;1.40;;
24635;SDS011;12772;49.794;10.024;2023-04-24T12:26:19;1.30;;;1.20;;
24635;SDS011;12772;49.794;10.024;2023-04-24T12:30:26;1.40;;;1.30;;
24635;SDS011;12772;49.794;10.024;2023-04-24T12:34:31;1.52;;;1.30;;
24635;SDS011;12772;49.794;10.024;2023-04-24T12:38:33;1.85;;;1.20;;
24635;SDS011;12772;49.794;10.024;2023-04-24T12:42:48;1.10;;;1.10;;
24635;SDS011;12772;49.794;10.024;2023-04-24T12:46:51;1.40;;;1.30;;
24635;SDS011;12772;49.794;10.024;2023-04-24T12:50:53;1.35;;;1.35;;
24635;SDS011;12772;49.794;10.024;2023-04-24T12:54:56;2.05;;;1.23;;
24635;SDS011;12772;49.794;10.024;2023-04-24T12:59:00;2.10;;;1.30;;
24635;SDS011;12772;49.794;10.024;2023-04-24T13:03:05;1.63;;;1.50;;
24635;SDS011;12772;49.794;10.024;2023-04-24T13:07:07;1.52;;;1.20;;
24635;SDS011;12772;49.794;10.024;2023-04-24T13:11:09;1.60;;;1.50;;
24635;SDS011;12772;49.794;10.024;2023-04-24T13:15:11;1.40;;;1.30;;
24635;SDS011;12772;49.794;10.024;2023-04-24T13:19:14;1.58;;;1.40;;
24635;SDS011;12772;49.794;10.024;2023-04-24T13:23:16;1.67;;;1.58;;
24635;SDS011;12772;49.794;10.024;2023-04-24T13:27:18;1.40;;;1.40;;
24635;SDS011;12772;49.794;10.024;2023-04-24T13:31:21;1.23;;;1.13;;
24635;SDS011;12772;49.794;10.024;2023-04-24T13:35:23;3.20;;;1.45;;
24635;SDS011;12772;49.794;10.024;2023-04-24T13:39:25;1.50;;;1.40;;
24635;SDS011;12772;49.794;10.024;2023-04-24T13:43:28;2.17;;;1.98;;
24635;SDS011;12772;49.794;10.024;2023-04-24T13:47:30;1.70;;;1.60;;
24635;SDS011;12772;49.794;10.024;2023-04-24T13:51:32;2.10;;;1.50;;
24635;SDS011;12772;49.794;10.024;2023-04-24T13:55:34;2.25;;;2.08;;
24635;SDS011;12772;49.794;10.024;2023-04-24T13:59:37;2.13;;;1.92;;
24635;SDS011;12772;49.794;10.024;2023-04-24T14:03:40;2.22;;;2.05;;
24635;SDS011;12772;49.794;10.024;2023-04-24T14:07:43;2.42;;;2.22;;
24635;SDS011;12772;49.794;10.024;2023-04-24T14:11:45;2.45;;;2.25;;
24635;SDS011;12772;49.794;10.024;2023-04-24T14:15:48;2.28;;;1.55;;
24635;SDS011;12772;49.794;10.024;2023-04-24T14:19:50;1.98;;;1.83;;
24635;SDS011;12772;49.794;10.024;2023-04-24T14:23:53;3.17;;;1.75;;
24635;SDS011;12772;49.794;10.024;2023-04-24T14:27:55;3.30;;;2.53;;
24635;SDS011;12772;49.794;10.024;2023-04-24T14:31:57;4.55;;;2.15;;
24635;SDS011;12772;49.794;10.024;2023-04-24T14:35:59;2.78;;;2.00;;
24635;SDS011;12772;49.794;10.024;2023-04-24T14:40:03;2.53;;;2.30;;
24635;SDS011;12772;49.794;10.024;2023-04-24T14:44:06;2.47;;;2.30;;
24635;SDS011;12772;49.794;10.024;2023-04-24T14:48:09;2.63;;;2.42;;
24635;SDS011;12772;49.794;10.024;2023-04-24T14:52:11;2.63;;;2.40;;
24635;SDS011;12772;49.794;10.024;2023-04-24T14:56:13;2.70;;;2.50;;
24635;SDS011;12772;49.794;10.024;2023-04-24T15:00:16;2.72;;;2.53;;
24635;SDS011;12772;49.794;10.024;2023-04-24T15:04:20;2.45;;;2.25;;
24635;SDS011;12772;49.794;10.024;2023-04-24T15:08:23;1.73;;;1.63;;
24635;SDS011;12772;49.794;10.024;2023-04-24T15:12:25;1.88;;;1.75;;
24635;SDS011;12772;49.794;10.024;2023-04-24T15:16:29;2.25;;;1.90;;
24635;SDS011;12772;49.794;10.024;2023-04-24T15:20:33;2.85;;;1.90;;
24635;SDS011;12772;49.794;10.024;2023-04-24T15:24:38;2.03;;;1.80;;
24635;SDS011;12772;49.794;10.024;2023-04-24T15:28:40;2.38;;;2.17;;
24635;SDS011;12772;49.794;10.024;2023-04-24T15:32:42;5.25;;;2.75;;
24635;SDS011;12772;49.794;10.024;2023-04-24T15:36:44;3.28;;;2.35;;
24635;SDS011;12772;49.794;10.024;2023-04-24T15:40:47;2.75;;;2.55;;
24635;SDS011;12772;49.794;10.024;2023-04-24T15:44:49;2.35;;;2.15;;
24635;SDS011;12772;49.794;10.024;2023-04-24T15:48:52;2.63;;;2.10;;
24635;SDS011;12772;49.794;10.024;2023-04-24T15:52:55;2.72;;;2.53;;
24635;SDS011;12772;49.794;10.024;2023-04-24T15:56:57;3.05;;;2.85;;
24635;SDS011;12772;49.794;10.024;2023-04-24T16:01:00;3.05;;;2.72;;
24635;SDS011;12772;49.794;10.024;2023-04-24T16:05:02;3.05;;;2.75;;
24635;SDS011;12772;49.794;10.024;2023-04-24T16:09:04;3.95;;;2.55;;
24635;SDS011;12772;49.794;10.024;2023-04-24T16:13:08;3.92;;;3.08;;
24635;SDS011;12772;49.794;10.024;2023-04-24T16:17:10;3.22;;;2.40;;
24635;SDS011;12772;49.794;10.024;2023-04-24T16:21:12;2.60;;;2.45;;
24635;SDS011;12772;49.794;10.024;2023-04-24T16:25:14;2.97;;;2.60;;
24635;SDS011;12772;49.794;10.024;2023-04-24T16:29:17;4.78;;;3.20;;
24635;SDS011;12772;49.794;10.024;2023-04-24T16:33:20;2.75;;;2.55;;
24635;SDS011;12772;49.794;10.024;2023-04-24T16:37:22;2.85;;;2.20;;
24635;SDS011;12772;49.794;10.024;2023-04-24T16:41:24;2.90;;;2.63;;
24635;SDS011;12772;49.794;10.024;2023-04-24T16:45:26;2.63;;;2.30;;
24635;SDS011;12772;49.794;10.024;2023-04-24T16:49:28;2.55;;;2.35;;
24635;SDS011;12772;49.794;10.024;2023-04-24T16:53:32;3.10;;;2.80;;
24635;SDS011;12772;49.794;10.024;2023-04-24T16:57:34;2.50;;;2.30;;
24635;SDS011;12772;49.794;10.024;2023-04-24T17:01:36;2.80;;;2.60;;
24635;SDS011;12772;49.794;10.024;2023-04-24T17:05:38;2.78;;;2.53;;
24635;SDS011;12772;49.794;10.024;2023-04-24T17:09:40;2.90;;;2.10;;
24635;SDS011;12772;49.794;10.024;2023-04-24T17:13:43;3.20;;;2.55;;
24635;SDS011;12772;49.794;10.024;2023-04-24T17:17:45;4.53;;;2.95;;
24635;SDS011;12772;49.794;10.024;2023-04-24T17:21:48;2.78;;;2.58;;
24635;SDS011;12772;49.794;10.024;2023-04-24T17:25:50;2.55;;;2.35;;
24635;SDS011;12772;49.794;10.024;2023-04-24T17:29:52;2.60;;;2.40;;
24635;SDS011;12772;49.794;10.024;2023-04-24T17:33:54;2.60;;;2.40;;
24635;SDS011;12772;49.794;10.024;2023-04-24T17:37:57;2.55;;;2.05;;
24635;SDS011;12772;49.794;10.024;2023-04-24T17:41:59;3.65;;;2.15;;
24635;SDS011;12772;49.794;10.024;2023-04-24T17:46:01;2.75;;;2.53;;
24635;SDS011;12772;49.794;10.024;2023-04-24T17:50:04;2.63;;;2.42;;
24635;SDS011;12772;49.794;10.024;2023-04-24T17:54:06;2.65;;;2.45;;
24635;SDS011;12772;49.794;10.024;2023-04-24T17:58:08;2.88;;;2.58;;
24635;SDS011;12772;49.794;10.024;2023-04-24T18:02:11;2.90;;;2.38;;
24635;SDS011;12772;49.794;10.024;2023-04-24T18:06:16;2.83;;;2.00;;
24635;SDS011;12772;49.794;10.024;2023-04-24T18:10:21;3.83;;;2.30;;
24635;SDS011;12772;49.794;10.024;2023-04-24T18:14:25;2.58;;;2.20;;
24635;SDS011;12772;49.794;10.024;2023-04-24T18:18:27;2.90;;;2.55;;
24635;SDS011;12772;49.794;10.024;2023-04-24T18:22:29;3.40;;;3.15;;
24635;SDS011;12772;49.794;10.024;2023-04-24T18:26:32;5.85;;;2.67;;
24635;SDS011;12772;49.794;10.024;2023-04-24T18:30:34;2.58;;;2.33;;
24635;SDS011;12772;49.794;10.024;2023-04-24T18:34:36;3.63;;;2.53;;
24635;SDS011;12772;49.794;10.024;2023-04-24T18:38:38;2.80;;;2.60;;
24635;SDS011;12772;49.794;10.024;2023-04-24T18:42:40;3.25;;;2.60;;
24635;SDS011;12772;49.794;10.024;2023-04-24T18:46:43;3.22;;;2.78;;
24635;SDS011;12772;49.794;10.024;2023-04-24T18:50:45;2.90;;;2.70;;
24635;SDS011;12772;49.794;10.024;2023-04-24T18:54:47;2.90;;;2.70;;
24635;SDS011;12772;49.794;10.024;2023-04-24T18:58:49;3.30;;;3.00;;
24635;SDS011;12772;49.794;10.024;2023-04-24T19:02:54;3.47;;;3.15;;
24635;SDS011;12772;49.794;10.024;2023-04-24T19:06:56;2.65;;;2.45;;
24635;SDS011;12772;49.794;10.024;2023-04-24T19:10:58;3.03;;;2.60;;
24635;SDS011;12772;49.794;10.024;2023-04-24T19:15:00;2.75;;;2.55;;
24635;SDS011;12772;49.794;10.024;2023-04-24T19:19:03;3.38;;;3.08;;
24635;SDS011;12772;49.794;10.024;2023-04-24T19:23:05;2.70;;;2.50;;
24635;SDS011;12772;49.794;10.024;2023-04-24T19:27:07;3.00;;;2.78;;
24635;SDS011;12772;49.794;10.024;2023-04-24T19:31:09;2.90;;;2.70;;
24635;SDS011;12772;49.794;10.024;2023-04-24T19:35:11;2.80;;;2.60;;
24635;SDS011;12772;49.794;10.024;2023-04-24T19:39:14;2.72;;;2.53;;
24635;SDS011;12772;49.794;10.024;2023-04-24T19:43:16;4.07;;;2.88;;
24635;SDS011;12772;49.794;10.024;2023-04-24T19:47:19;3.13;;;2.58;;
24635;SDS011;12772;49.794;10.024;2023-04-24T19:51:21;2.83;;;2.40;;
24635;SDS011;12772;49.794;10.024;2023-04-24T19:55:23;2.97;;;2.67;;
24635;SDS011;12772;49.794;10.024;2023-04-24T19:59:26;3.00;;;2.60;;
24635;SDS011;12772;49.794;10.024;2023-04-24T20:03:28;4.45;;;3.05;;
24635;SDS011;12772;49.794;10.024;2023-04-24T20:07:30;2.60;;;2.40;;
24635;SDS011;12772;49.794;10.024;2023-04-24T20:11:32;2.55;;;2.35;;
24635;SDS011;12772;49.794;10.024;2023-04-24T20:15:34;3.13;;;2.83;;
24635;SDS011;12772;49.794;10.024;2023-04-24T20:19:36;3.20;;;3.00;;
24635;SDS011;12772;49.794;10.024;2023-04-24T20:23:40;4.70;;;2.97;;
24635;SDS011;12772;49.794;10.024;2023-04-24T20:27:42;2.90;;;2.67;;
24635;SDS011;12772;49.794;10.024;2023-04-24T20:31:44;3.10;;;2.80;;
24635;SDS011;12772;49.794;10.024;2023-04-24T20:35:46;2.63;;;2.42;;
24635;SDS011;12772;49.794;10.024;2023-04-24T20:39:50;3.13;;;2.90;;
24635;SDS011;12772;49.794;10.024;2023-04-24T20:43:52;2.95;;;2.47;;
24635;SDS011;12772;49.794;10.024;2023-04-24T20:47:54;3.33;;;3.00;;
24635;SDS011;12772;49.794;10.024;2023-04-24T20:51:57;3.60;;;3.22;;
24635;SDS011;12772;49.794;10.024;2023-04-24T20:56:00;2.78;;;2.58;;
24635;SDS011;12772;49.794;10.024;2023-04-24T21:00:03;3.00;;;2.70;;
24635;SDS011;12772;49.794;10.024;2023-04-24T21:04:07;2.72;;;2.38;;
24635;SDS011;12772;49.794;10.024;2023-04-24T21:08:09;2.45;;;2.25;;
24635;SDS011;12772;49.794;10.024;2023-04-24T21:12:11;3.15;;;2.40;;
24635;SDS011;12772;49.794;10.024;2023-04-24T21:16:13;4.82;;;3.65;;
24635;SDS011;12772;49.794;10.024;2023-04-24T21:20:15;3.20;;;2.90;;
24635;SDS011;12772;49.794;10.024;2023-04-24T21:24:17;3.13;;;2.85;;
24635;SDS011;12772;49.794;10.024;2023-04-24T21:28:20;4.18;;;3.60;;
24635;SDS011;12772;49.794;10.024;2023-04-24T21:32:30;3.70;;;3.40;;
24635;SDS011;12772;49.794;10.024;2023-04-24T21:36:38;3.85;;;3.55;;
24635;SDS011;12772;49.794;10.024;2023-04-24T21:40:40;3.67;;;3.42;;
24635;SDS011;12772;49.794;10.024;2023-04-24T21:44:42;3.78;;;3.42;;
24635;SDS011;12772;49.794;10.024;2023-04-24T21:48:44;3.30;;;3.10;;
24635;SDS011;12772;49.794;10.024;2023-04-24T21:52:46;3.28;;;2.97;;
24635;SDS011;12772;49.794;10.024;2023-04-24T21:56:48;3.00;;;2.70;;
24635;SDS011;12772;49.794;10.024;2023-04-24T22:00:51;3.00;;;2.40;;
24635;SDS011;12772;49.794;10.024;2023-04-24T22:04:53;3.28;;;2.97;;
24635;SDS011;12772;49.794;10.024;2023-04-24T22:08:55;3.17;;;2.95;;
24635;SDS011;12772;49.794;10.024;2023-04-24T22:12:57;3.38;;;3.08;;
24635;SDS011;12772;49.794;10.024;2023-04-24T22:16:59;2.95;;;2.75;;
24635;SDS011;12772;49.794;10.024;2023-04-24T22:21:02;3.22;;;3.00;;
24635;SDS011;12772;49.794;10.024;2023-04-24T22:25:04;3.00;;;2.80;;
24635;SDS011;12772;49.794;10.024;2023-04-24T22:29:07;4.15;;;3.40;;
24635;SDS011;12772;49.794;10.024;2023-04-24T22:33:09;3.35;;;3.05;;
24635;SDS011;12772;49.794;10.024;2023-04-24T22:37:11;4.20;;;3.58;;
24635;SDS011;12772;49.794;10.024;2023-04-24T22:41:14;3.55;;;3.25;;
24635;SDS011;12772;49.794;10.024;2023-04-24T22:45:16;3.60;;;3.30;;
24635;SDS011;12772;49.794;10.024;2023-04-24T22:49:22;4.00;;;3.20;;
24635;SDS011;12772;49.794;10.024;2023-04-24T22:53:26;4.13;;;3.72;;
24635;SDS011;12772;49.794;10.024;2023-04-24T22:57:29;4.78;;;4.35;;
24635;SDS011;12772;49.794;10.024;2023-04-24T23:01:31;3.92;;;3.53;;
24635;SDS011;12772;49.794;10.024;2023-04-24T23:05:33;3.95;;;3.65;;
24635;SDS011;12772;49.794;10.024;2023-04-24T23:09:35;4.00;;;3.00;;
24635;SDS011;12772;49.794;10.024;2023-04-24T23:13:37;3.40;;;3.10;;
24635;SDS011;12772;49.794;10.024;2023-04-24T23:17:40;3.20;;;3.00;;
24635;SDS011;12772;49.794;10.024;2023-04-24T23:21:44;3.08;;;2.80;;
24635;SDS011;12772;49.794;10.024;2023-04-24T23:25:46;2.90;;;2.70;;
24635;SDS011;12772;49.794;10.024;2023-04-24T23:29:48;3.47;;;3.17;;
24635;SDS011;12772;49.794;10.024;2023-04-24T23:33:51;3.30;;;3.10;;
24635;SDS011;12772;49.794;10.024;2023-04-24T23:37:53;3.30;;;3.10;;
24635;SDS011;12772;49.794;10.024;2023-04-24T23:41:56;3.28;;;3.00;;
24635;SDS011;12772;49.794;10.024;2023-04-24T23:45:59;3.70;;;3.33;;
24635;SDS011;12772;49.794;10.024;2023-04-24T23:50:01;3.05;;;2.78;;
24635;SDS011;12772;49.794;10.024;2023-04-24T23:54:03;4.47;;;2.83;;
24635;SDS011;12772;49.794;10.024;2023-04-24T23:58:06;3.17;;;2.88;;
